DTMB/MIR METAR and TAF weather

Enter ICAO airport designator
Station Type Date Time Source
DTMB METAR 2019/02/20 07:00 UTC NOAA

DTMB 200700Z 00000KT 6000 NSC 08/07 Q1022


Station Type Date Time Source
DTMB Decoded METAR 2019/02/20 07:00 UTC NOAA

Habib Bourguiba , Tunisia (DTMB) 35-46N 010-45E
Feb 20, 2019 - 02:00 AM EST / 2019.02.20 0700 UTC
Wind: Calm:0
Visibility: 3 mile(s):0
Temperature: 46 F (8 C)
Dew Point: 44 F (7 C)
Relative Humidity: 93%
Pressure (altimeter): 30.18 in. Hg (1022 hPa)
ob: DTMB 200700Z 00000KT 6000 NSC 08/07 Q1022
cycle: 7

Station Type Date Time Source
DTMB TAF 2019/02/20 06:48 UTC NOAA

TAF TAF DTMB 200500Z 2006/2106 16005KT CAVOK PROB40
TEMPO 2006/2008 VRB02KT 3000 BR FEW016
BECMG 2010/2012 09005KT


Example: see airport list